Time;durP1;ratioP1;P1;durP2;ratioP2;P2;SDS_P1;SDS_P2;PMS_P1;PMS_P2;Temp;Humidity;BMP_temperature;BMP_pressure;BME280_temperature;BME280_humidity;BME280_pressure;Samples;Min_cycle;Max_cycle;Signal;HPM_P1;HPM_P2
2021/08/05 00:00:18;;;;;;;3.58;3.28;;;;;;;17.56;100.00;100517.56;4940402;28;20577;-78
2021/08/05 00:02:44;;;;;;;4.25;3.50;;;;;;;17.60;100.00;100518.56;4956319;29;20183;-78
2021/08/05 00:05:12;;;;;;;3.20;2.90;;;;;;;17.57;100.00;100519.19;4940379;28;20257;-78
2021/08/05 00:07:38;;;;;;;4.00;3.20;;;;;;;17.46;100.00;100523.38;4956642;29;20202;-79
2021/08/05 00:10:08;;;;;;;3.97;3.08;;;;;;;17.47;100.00;100529.66;4924462;28;20210;-78
2021/08/05 00:12:34;;;;;;;3.22;2.97;;;;;;;17.34;100.00;100525.94;4949945;29;20205;-78
2021/08/05 00:15:00;;;;;;;3.50;3.20;;;;;;;17.41;100.00;100526.25;4972001;29;20195;-76
2021/08/05 00:17:25;;;;;;;3.67;3.28;;;;;;;17.44;100.00;100516.59;4971477;29;20227;-78
2021/08/05 00:19:52;;;;;;;3.72;3.20;;;;;;;17.41;100.00;100515.28;4965640;29;20227;-77
2021/08/05 00:22:22;;;;;;;3.50;3.20;;;;;;;17.38;100.00;100521.44;4984759;28;20255;-78
2021/08/05 00:24:47;;;;;;;5.78;3.30;;;;;;;17.35;100.00;100524.81;4944150;29;20205;-78
2021/08/05 00:27:13;;;;;;;3.30;2.97;;;;;;;17.35;100.00;100522.06;4948528;29;20231;-78
2021/08/05 00:29:38;;;;;;;3.33;3.08;;;;;;;17.30;100.00;100520.59;4925281;29;20210;-78
2021/08/05 00:32:05;;;;;;;3.38;3.00;;;;;;;17.29;100.00;100516.22;4940994;29;20228;-78
2021/08/05 00:34:33;;;;;;;4.32;3.03;;;;;;;17.18;100.00;100521.22;4953695;29;20261;-79
2021/08/05 00:37:01;;;;;;;4.43;3.40;;;;;;;17.15;100.00;100515.50;4927684;29;20226;-79
2021/08/05 00:39:27;;;;;;;3.25;2.95;;;;;;;17.13;100.00;100515.03;4976451;28;20748;-79
2021/08/05 00:41:57;;;;;;;3.47;3.17;;;;;;;17.18;100.00;100520.38;4993101;28;20231;-77
2021/08/05 00:44:25;;;;;;;3.65;3.35;;;;;;;17.13;100.00;100520.50;4979719;28;20171;-78
2021/08/05 00:46:56;;;;;;;3.20;2.90;;;;;;;17.07;100.00;100510.81;4979694;28;20255;-78
2021/08/05 00:49:28;;;;;;;4.72;3.10;;;;;;;16.99;100.00;100512.38;4970189;28;20430;-77
2021/08/05 00:51:54;;;;;;;3.58;3.20;;;;;;;17.13;100.00;100502.09;4979641;29;20273;-78
2021/08/05 00:54:19;;;;;;;3.30;3.00;;;;;;;17.00;100.00;100508.53;4968767;28;20179;-77
2021/08/05 00:56:48;;;;;;;3.05;2.78;;;;;;;17.00;100.00;100503.03;4995780;28;20207;-77
2021/08/05 00:59:13;;;;;;;3.60;2.90;;;;;;;16.99;100.00;100504.13;4978951;28;20291;-76
2021/08/05 01:01:44;;;;;;;3.13;2.90;;;;;;;17.02;100.00;100499.97;4934005;29;20230;-79
2021/08/05 01:04:10;;;;;;;4.18;2.80;;;;;;;17.08;100.00;100498.69;4914204;29;20677;-79
2021/08/05 01:07:23;;;;;;;2.92;2.72;;;;;;;17.08;100.00;100504.19;4958858;29;20231;-79
2021/08/05 01:10:07;;;;;;;3.58;3.22;;;;;;;16.95;100.00;100505.09;4943748;29;20693;-79
2021/08/05 01:12:53;;;;;;;4.97;2.90;;;;;;;17.00;100.00;100503.03;4959139;29;20223;-78
2021/08/05 01:15:28;;;;;;;2.95;2.75;;;;;;;16.80;100.00;100502.00;4956648;28;20199;-78
2021/08/05 01:17:59;;;;;;;3.85;2.88;;;;;;;16.93;100.00;100502.69;4956005;29;20226;-80
2021/08/05 01:20:30;;;;;;;3.10;2.85;;;;;;;16.88;100.00;100496.53;4969271;28;20631;-80
2021/08/05 01:23:10;;;;;;;3.05;2.75;;;;;;;16.97;100.00;100508.34;4942745;29;20187;-80
2021/08/05 01:25:48;;;;;;;3.90;2.92;;;;;;;16.89;100.00;100500.09;4953030;28;20231;-79
2021/08/05 01:28:15;;;;;;;3.30;2.80;;;;;;;16.83;100.00;100495.84;4958611;29;20207;-79
2021/08/05 01:30:48;;;;;;;5.63;2.90;;;;;;;16.82;100.00;100489.56;4958215;28;20299;-80
2021/08/05 01:33:16;;;;;;;2.80;2.58;;;;;;;16.72;100.00;100498.09;4943881;29;20321;-78
2021/08/05 01:35:44;;;;;;;2.65;2.45;;;;;;;16.72;100.00;100489.84;4921850;28;20230;-80
2021/08/05 01:38:13;;;;;;;3.00;2.70;;;;;;;16.64;100.00;100493.34;4941890;28;20203;-79
2021/08/05 01:40:38;;;;;;;3.10;2.80;;;;;;;16.50;100.00;100491.00;4958738;28;20265;-78
2021/08/05 01:43:06;;;;;;;3.22;2.80;;;;;;;16.37;100.00;100491.91;4959036;29;20689;-80
2021/08/05 01:45:34;;;;;;;3.55;2.92;;;;;;;16.33;100.00;100488.19;4939483;28;20227;-80
2021/08/05 01:48:06;;;;;;;4.15;2.88;;;;;;;16.24;100.00;100493.63;4923820;29;20210;-79
2021/08/05 01:50:36;;;;;;;3.22;2.92;;;;;;;16.26;100.00;100496.88;4941281;28;20700;-79
2021/08/05 01:53:04;;;;;;;3.85;3.00;;;;;;;16.21;100.00;100493.44;4958896;29;20217;-79
2021/08/05 01:55:32;;;;;;;3.20;2.90;;;;;;;16.23;100.00;100496.69;4963781;28;20305;-80
2021/08/05 01:57:58;;;;;;;3.42;3.13;;;;;;;16.26;100.00;100496.03;4958086;29;20234;-77
2021/08/05 02:00:24;;;;;;;3.83;3.42;;;;;;;16.24;100.00;100482.66;4960138;28;20171;-78
2021/08/05 02:02:56;;;;;;;4.57;3.22;;;;;;;16.28;100.00;100489.13;4971635;28;20196;-79
2021/08/05 02:05:46;;;;;;;4.20;3.30;;;;;;;16.31;100.00;100487.69;4973975;28;20684;-80
2021/08/05 02:08:14;;;;;;;5.47;3.20;;;;;;;16.24;100.00;100484.56;4957721;28;20365;-79
2021/08/05 02:10:41;;;;;;;3.57;2.87;;;;;;;16.26;100.00;100474.09;4941991;29;20246;-79
2021/08/05 02:13:13;;;;;;;2.92;2.72;;;;;;;16.31;100.00;100479.47;4958275;28;20188;-80
2021/08/05 02:15:45;;;;;;;4.37;2.97;;;;;;;16.26;100.00;100476.84;4957066;28;20223;-79
2021/08/05 02:18:16;;;;;;;3.63;2.67;;;;;;;16.17;100.00;100484.16;4926753;29;20644;-80
2021/08/05 02:20:42;;;;;;;3.05;2.75;;;;;;;16.25;100.00;100483.47;4957486;28;20621;-80
2021/08/05 02:23:11;;;;;;;4.10;3.40;;;;;;;16.33;100.00;100471.72;4958357;29;20716;-80
2021/08/05 02:25:40;;;;;;;3.35;3.05;;;;;;;16.37;100.00;100470.81;4956694;28;20226;-80
2021/08/05 02:28:08;;;;;;;3.95;3.00;;;;;;;16.32;100.00;100464.66;4941781;29;20253;-80
2021/08/05 02:30:37;;;;;;;3.70;3.40;;;;;;;16.34;100.00;100465.13;4928076;28;20219;-78
2021/08/05 02:33:03;;;;;;;2.93;2.60;;;;;;;16.42;100.00;100467.09;4940802;29;20209;-79
2021/08/05 02:35:29;;;;;;;3.20;2.90;;;;;;;16.38;100.00;100455.97;4957159;28;20649;-79
2021/08/05 02:38:03;;;;;;;5.07;2.90;;;;;;;16.35;100.00;100456.56;4941504;28;20589;-79
2021/08/05 02:40:28;;;;;;;3.08;2.83;;;;;;;16.60;100.00;100459.44;4925979;28;20638;-79
2021/08/05 02:42:54;;;;;;;3.78;2.75;;;;;;;16.56;100.00;100453.00;4941473;29;20178;-79
2021/08/05 02:45:21;;;;;;;3.60;2.75;;;;;;;16.64;100.00;100460.44;4973236;28;20272;-79
2021/08/05 02:47:47;;;;;;;3.25;2.67;;;;;;;16.66;100.00;100452.69;4941738;29;20207;-80
2021/08/05 02:50:15;;;;;;;3.58;2.53;;;;;;;16.74;100.00;100451.09;4926703;28;20213;-79
2021/08/05 02:52:40;;;;;;;3.45;2.58;;;;;;;16.73;100.00;100449.50;4958660;28;20175;-80
2021/08/05 02:55:11;;;;;;;2.92;2.60;;;;;;;16.83;100.00;100455.53;4957574;28;20235;-80
2021/08/05 02:57:42;;;;;;;2.58;2.38;;;;;;;16.82;100.00;100450.34;4957461;29;20551;-79
2021/08/05 03:00:11;;;;;;;4.30;2.53;;;;;;;16.77;100.00;100448.53;4926988;28;20183;-79
2021/08/05 03:02:41;;;;;;;3.42;2.60;;;;;;;16.99;100.00;100451.19;4958513;28;20295;-80
2021/08/05 03:05:08;;;;;;;3.15;2.30;;;;;;;16.99;100.00;100452.00;4972759;28;20699;-80
2021/08/05 03:07:36;;;;;;;3.92;2.78;;;;;;;16.96;100.00;100446.38;4956818;29;20708;-78
2021/08/05 03:10:03;;;;;;;3.53;2.47;;;;;;;17.02;100.00;100445.09;4940662;29;20231;-79
2021/08/05 03:12:30;;;;;;;3.53;2.80;;;;;;;17.02;100.00;100437.66;4941198;29;20223;-78
2021/08/05 03:14:56;;;;;;;2.88;2.65;;;;;;;17.10;100.00;100436.03;4973005;28;20172;-79
2021/08/05 03:17:24;;;;;;;3.03;2.55;;;;;;;16.98;100.00;100444.91;4956718;28;20771;-79
2021/08/05 03:19:56;;;;;;;3.33;2.63;;;;;;;16.94;100.00;100437.66;4925985;29;20211;-79
2021/08/05 03:22:22;;;;;;;2.88;2.58;;;;;;;17.04;100.00;100440.06;4956922;29;20286;-79
2021/08/05 03:24:47;;;;;;;2.95;2.40;;;;;;;16.99;100.00;100445.72;4959198;29;20194;-78
2021/08/05 03:27:13;;;;;;;3.58;2.65;;;;;;;16.99;100.00;100435.53;4951239;29;20223;-79
2021/08/05 03:29:38;;;;;;;3.65;2.60;;;;;;;16.87;100.00;100437.28;4942406;28;20210;-79
2021/08/05 03:32:06;;;;;;;3.63;2.85;;;;;;;16.95;100.00;100426.31;4957870;28;20254;-79
2021/08/05 03:34:34;;;;;;;2.90;2.60;;;;;;;16.95;100.00;100440.03;4972780;28;20190;-78
2021/08/05 03:37:00;;;;;;;3.38;2.72;;;;;;;16.89;100.00;100434.25;4940793;29;20215;-79
2021/08/05 03:39:30;;;;;;;5.28;2.67;;;;;;;16.83;100.00;100436.31;4940284;28;20213;-79
2021/08/05 03:41:56;;;;;;;2.63;2.38;;;;;;;16.86;100.00;100440.34;4961561;28;20218;-79
2021/08/05 03:44:25;;;;;;;2.97;2.67;;;;;;;16.77;100.00;100437.56;4964423;28;20808;-76
2021/08/05 03:46:56;;;;;;;3.22;2.90;;;;;;;16.84;100.00;100435.19;4926557;29;20214;-78
2021/08/05 03:49:21;;;;;;;2.70;2.50;;;;;;;16.84;100.00;100437.13;4956971;29;20210;-79
2021/08/05 03:51:47;;;;;;;3.35;2.70;;;;;;;16.78;100.00;100439.19;4940375;28;20222;-80
2021/08/05 03:54:12;;;;;;;3.30;3.00;;;;;;;16.85;100.00;100438.72;4941838;29;20194;-80
2021/08/05 03:56:40;;;;;;;3.05;2.75;;;;;;;16.86;100.00;100432.91;4955799;28;20226;-78
2021/08/05 03:59:06;;;;;;;4.03;2.80;;;;;;;16.79;100.00;100440.00;4926071;29;20289;-79
2021/08/05 04:01:32;;;;;;;2.85;2.60;;;;;;;16.71;100.00;100436.09;4965905;28;20712;-79
2021/08/05 04:04:03;;;;;;;5.80;3.47;;;;;;;16.78;100.00;100433.72;4954660;28;20563;-78
2021/08/05 04:06:36;;;;;;;3.38;2.88;;;;;;;16.78;100.00;100441.13;4948825;28;20305;-79
2021/08/05 04:09:01;;;;;;;4.00;2.70;;;;;;;16.70;100.00;100431.75;4944068;29;20211;-78
2021/08/05 04:11:29;;;;;;;3.60;2.95;;;;;;;16.71;100.00;100436.09;4946874;28;20314;-79
2021/08/05 04:13:57;;;;;;;4.18;3.20;;;;;;;16.73;100.00;100436.59;4954864;29;20282;-79
2021/08/05 04:16:23;;;;;;;4.07;3.05;;;;;;;16.75;100.00;100441.75;4970919;28;20223;-79
2021/08/05 04:18:48;;;;;;;3.40;2.78;;;;;;;16.77;100.00;100434.81;4955256;29;20211;-79
2021/08/05 04:21:16;;;;;;;4.43;2.92;;;;;;;16.72;100.00;100431.41;4955311;28;20711;-78
2021/08/05 04:23:42;;;;;;;2.90;2.70;;;;;;;16.73;100.00;100442.06;4937065;28;20186;-78
2021/08/05 04:26:10;;;;;;;3.60;2.97;;;;;;;16.71;100.00;100433.34;4943072;29;20807;-79
2021/08/05 04:28:38;;;;;;;4.30;2.90;;;;;;;16.63;100.00;100436.09;4950777;28;20289;-78
2021/08/05 04:31:03;;;;;;;2.88;2.67;;;;;;;16.68;100.00;100434.00;4934732;28;20227;-79
2021/08/05 04:33:31;;;;;;;3.25;2.75;;;;;;;16.77;100.00;100425.78;4959761;28;20183;-78
2021/08/05 04:35:56;;;;;;;4.25;2.70;;;;;;;16.81;100.00;100438.56;4958657;28;20214;-79
2021/08/05 04:38:22;;;;;;;5.70;2.75;;;;;;;16.82;100.00;100423.72;4948125;29;20215;-79
2021/08/05 04:40:50;;;;;;;2.83;2.60;;;;;;;16.86;100.00;100427.44;4938562;28;20235;-79
2021/08/05 04:43:16;;;;;;;2.88;2.60;;;;;;;16.88;100.00;100422.44;4955393;28;20183;-79
2021/08/05 04:45:44;;;;;;;3.15;2.70;;;;;;;16.94;100.00;100416.50;4956644;28;20225;-79
2021/08/05 04:48:12;;;;;;;3.05;2.50;;;;;;;16.93;100.00;100425.03;4956290;29;20215;-80
2021/08/05 04:50:46;;;;;;;2.72;2.53;;;;;;;17.03;100.00;100409.09;4954947;29;20712;-79
2021/08/05 04:53:16;;;;;;;3.45;3.15;;;;;;;17.15;100.00;100416.69;4929644;28;20176;-80
2021/08/05 04:55:46;;;;;;;3.70;2.38;;;;;;;17.25;100.00;100413.66;4954583;28;20223;-79
2021/08/05 04:58:14;;;;;;;2.83;2.22;;;;;;;17.28;100.00;100424.00;4924713;29;20199;-79
2021/08/05 05:00:45;;;;;;;2.92;2.30;;;;;;;17.33;100.00;100418.38;4923328;29;20230;-79
2021/08/05 05:03:10;;;;;;;2.60;2.40;;;;;;;17.55;100.00;100416.28;4930242;29;20675;-80
2021/08/05 05:05:36;;;;;;;3.90;2.53;;;;;;;17.65;100.00;100415.94;4925703;28;20218;-79
2021/08/05 05:08:36;;;;;;;2.67;2.47;;;;;;;17.66;100.00;100415.63;4942546;28;20218;-80
2021/08/05 05:11:04;;;;;;;3.20;2.33;;;;;;;17.65;100.00;100403.00;4947395;29;20258;-76
2021/08/05 05:13:30;;;;;;;2.58;2.38;;;;;;;17.65;100.00;100416.72;4975045;28;20195;-80
2021/08/05 05:15:55;;;;;;;4.05;2.58;;;;;;;17.69;100.00;100412.22;4961641;28;20282;-79
2021/08/05 05:18:22;;;;;;;3.58;2.30;;;;;;;17.64;100.00;100415.13;4950190;28;20203;-77
2021/08/05 05:20:51;;;;;;;2.90;2.50;;;;;;;17.63;100.00;100420.94;4980839;28;20226;-81
2021/08/05 05:23:17;;;;;;;3.17;2.53;;;;;;;17.72;100.00;100410.75;4936101;29;20192;-78
2021/08/05 05:25:43;;;;;;;2.90;2.60;;;;;;;17.57;100.00;100409.31;4957124;28;20648;-79
2021/08/05 05:28:14;;;;;;;4.30;2.53;;;;;;;17.64;100.00;100412.38;4964589;28;20214;-78
2021/08/05 05:30:42;;;;;;;2.85;2.55;;;;;;;17.73;100.00;100418.69;4939430;28;20254;-80
2021/08/05 05:33:10;;;;;;;3.13;2.40;;;;;;;17.65;100.00;100411.22;4963454;28;20196;-79
2021/08/05 05:35:36;;;;;;;4.00;2.75;;;;;;;17.72;100.00;100403.31;4965193;28;20238;-79
2021/08/05 05:38:04;;;;;;;4.10;2.80;;;;;;;17.67;100.00;100399.94;4941931;29;20211;-79
2021/08/05 05:40:32;;;;;;;3.30;2.40;;;;;;;17.58;100.00;100402.69;4957765;28;20223;-81
2021/08/05 05:43:00;;;;;;;4.20;2.50;;;;;;;17.67;100.00;100399.94;4957038;29;20246;-79
2021/08/05 05:45:28;;;;;;;4.07;2.70;;;;;;;17.63;100.00;100402.50;4957971;28;20261;-78
2021/08/05 05:47:56;;;;;;;4.43;2.75;;;;;;;17.69;100.00;100406.72;4957239;28;20202;-79
2021/08/05 05:50:22;;;;;;;5.53;2.88;;;;;;;17.71;100.00;100415.44;4953274;28;20389;-79
2021/08/05 05:52:48;;;;;;;3.72;2.50;;;;;;;17.72;100.00;100408.81;4942135;29;20307;-78
2021/08/05 05:55:13;;;;;;;5.50;2.47;;;;;;;17.73;100.00;100402.19;4960748;28;20187;-78
2021/08/05 05:57:42;;;;;;;2.65;2.45;;;;;;;17.91;100.00;100417.50;4943321;29;20183;-78
2021/08/05 06:00:11;;;;;;;2.72;2.30;;;;;;;17.88;100.00;100415.44;4941378;28;20361;-78
2021/08/05 06:02:44;;;;;;;4.25;2.58;;;;;;;17.98;100.00;100415.06;4959387;29;20199;-78
2021/08/05 06:05:12;;;;;;;2.60;2.40;;;;;;;17.92;100.00;100408.16;4960383;28;20218;-79
2021/08/05 06:07:48;;;;;;;2.50;2.30;;;;;;;18.15;100.00;100404.91;4958631;28;20241;-80
2021/08/05 06:10:16;;;;;;;3.50;2.42;;;;;;;18.24;100.00;100398.22;4968919;28;20179;-78
2021/08/05 06:12:42;;;;;;;3.88;2.47;;;;;;;18.40;100.00;100393.00;4959290;28;20179;-78
2021/08/05 06:15:09;;;;;;;3.65;2.55;;;;;;;18.54;100.00;100397.13;4931747;28;20589;-78
2021/08/05 06:17:36;;;;;;;2.85;2.22;;;;;;;18.67;100.00;100396.91;4956351;29;20199;-79
2021/08/05 06:20:03;;;;;;;3.22;2.28;;;;;;;18.82;100.00;100392.78;4967550;28;20344;-80
2021/08/05 06:22:28;;;;;;;3.00;2.50;;;;;;;18.68;100.00;100395.78;4958657;29;20214;-79
2021/08/05 06:24:54;;;;;;;4.20;2.50;;;;;;;18.79;100.00;100393.44;4949365;29;20198;-78
2021/08/05 06:27:22;;;;;;;2.42;2.25;;;;;;;18.86;100.00;100402.00;4958190;28;20229;-79
2021/08/05 06:29:49;;;;;;;4.55;2.40;;;;;;;19.02;100.00;100388.16;4942851;29;20215;-80
2021/08/05 06:32:17;;;;;;;3.70;2.28;;;;;;;19.17;100.00;100395.81;4926355;28;20238;-79
2021/08/05 06:34:45;;;;;;;3.95;2.80;;;;;;;18.94;100.00;100397.25;4956479;29;20187;-79
2021/08/05 06:37:11;;;;;;;3.50;2.58;;;;;;;19.11;100.00;100399.13;4958640;29;20230;-79
2021/08/05 06:39:36;;;;;;;3.78;2.55;;;;;;;19.32;100.00;100403.47;4958466;29;20713;-80
2021/08/05 06:42:02;;;;;;;3.60;2.90;;;;;;;19.43;100.00;100400.00;4948796;29;20218;-79
2021/08/05 06:44:35;;;;;;;4.50;2.55;;;;;;;19.52;100.00;100391.66;4936263;29;20187;-77
2021/08/05 06:47:07;;;;;;;3.90;2.40;;;;;;;19.33;100.00;100399.59;4980579;28;20237;-79
2021/08/05 06:49:35;;;;;;;3.47;2.60;;;;;;;19.34;100.00;100418.56;4966029;28;20786;-78
2021/08/05 06:52:04;;;;;;;3.97;2.63;;;;;;;19.66;100.00;100400.47;4951252;28;20227;-78
2021/08/05 06:54:32;;;;;;;2.95;2.55;;;;;;;19.48;100.00;100402.53;4969161;28;20191;-78
2021/08/05 06:57:02;;;;;;;4.70;2.90;;;;;;;19.57;100.00;100405.25;4966200;28;20215;-78
2021/08/05 06:59:27;;;;;;;4.80;2.90;;;;;;;19.67;100.00;100397.38;4944742;28;20701;-77
2021/08/05 07:01:53;;;;;;;3.50;2.60;;;;;;;19.43;100.00;100407.44;4942770;29;20269;-79
2021/08/05 07:04:24;;;;;;;3.03;2.75;;;;;;;19.52;100.00;100408.19;4974698;28;20562;-79
2021/08/05 07:06:49;;;;;;;3.35;2.85;;;;;;;19.46;100.00;100409.53;4959282;29;20234;-78
2021/08/05 07:09:15;;;;;;;3.15;2.85;;;;;;;19.35;100.00;100405.56;4958023;29;20195;-79
2021/08/05 07:11:40;;;;;;;3.63;2.72;;;;;;;19.39;100.00;100414.78;4941423;28;20231;-79
2021/08/05 07:14:06;;;;;;;4.25;2.95;;;;;;;19.50;100.00;100408.53;4926121;29;20183;-78
2021/08/05 07:16:36;;;;;;;3.35;3.05;;;;;;;19.39;100.00;100414.78;4957869;28;20265;-80
2021/08/05 07:19:02;;;;;;;4.00;2.80;;;;;;;19.74;100.00;100417.75;4957739;28;20253;-79
2021/08/05 07:21:32;;;;;;;3.78;2.97;;;;;;;19.71;100.00;100417.59;4972957;28;20709;-78
2021/08/05 07:23:58;;;;;;;4.18;2.63;;;;;;;19.59;100.00;100419.50;4942434;29;20554;-80
2021/08/05 07:26:23;;;;;;;4.60;3.28;;;;;;;19.83;100.00;100417.69;4941396;28;20223;-79
2021/08/05 07:28:49;;;;;;;2.80;2.60;;;;;;;20.12;100.00;100415.59;4941756;29;20211;-79
2021/08/05 07:31:17;;;;;;;3.42;3.03;;;;;;;20.02;100.00;100418.78;4956519;29;20223;-80
2021/08/05 07:33:48;;;;;;;3.00;2.40;;;;;;;20.43;100.00;100414.75;4958100;29;20178;-78
2021/08/05 07:36:17;;;;;;;4.07;2.83;;;;;;;20.51;100.00;100411.09;4948681;28;20214;-80
2021/08/05 07:38:45;;;;;;;2.92;2.60;;;;;;;20.54;100.00;100410.38;4940819;29;20290;-78
2021/08/05 07:41:11;;;;;;;3.00;2.70;;;;;;;20.35;100.00;100419.59;4962503;28;20238;-79
2021/08/05 07:43:37;;;;;;;3.25;2.95;;;;;;;20.28;100.00;100422.09;4973534;28;20209;-78
2021/08/05 07:46:05;;;;;;;3.67;2.85;;;;;;;20.44;100.00;100424.66;4973105;28;20227;-79
2021/08/05 07:48:30;;;;;;;3.40;3.10;;;;;;;20.66;100.00;100418.72;4944518;28;20282;-78
2021/08/05 07:50:59;;;;;;;3.03;2.72;;;;;;;20.87;100.00;100411.94;4960577;28;20229;-78
2021/08/05 07:53:24;;;;;;;2.95;2.70;;;;;;;20.64;100.00;100406.41;4958504;29;20291;-77
2021/08/05 07:55:50;;;;;;;3.00;2.78;;;;;;;20.58;100.00;100410.50;4975177;28;20246;-79
2021/08/05 07:58:15;;;;;;;3.88;3.05;;;;;;;20.76;100.00;100409.97;4973611;29;20214;-78
2021/08/05 08:00:43;;;;;;;3.40;3.10;;;;;;;20.69;100.00;100406.97;4958434;29;20292;-78
2021/08/05 08:03:11;;;;;;;3.70;3.35;;;;;;;20.62;100.00;100412.28;4975439;28;20186;-77
2021/08/05 08:05:40;;;;;;;5.93;3.47;;;;;;;20.55;100.00;100412.00;4974627;29;20278;-78
2021/08/05 08:08:08;;;;;;;3.63;3.40;;;;;;;20.13;100.00;100417.22;4972709;29;20211;-77
2021/08/05 08:10:37;;;;;;;3.75;3.20;;;;;;;20.00;100.00;100420.25;4936175;29;20309;-77
2021/08/05 08:13:03;;;;;;;5.32;4.30;;;;;;;19.50;100.00;100410.47;4961283;29;20254;-78
2021/08/05 08:15:29;;;;;;;5.53;4.25;;;;;;;19.48;100.00;100421.03;4936894;28;20256;-77
2021/08/05 08:17:57;;;;;;;5.97;4.43;;;;;;;19.24;100.00;100417.34;4969285;28;20187;-79
2021/08/05 08:20:25;;;;;;;5.07;4.38;;;;;;;19.16;100.00;100419.00;4955335;28;20665;-78
2021/08/05 08:22:53;;;;;;;5.72;5.00;;;;;;;19.19;100.00;100412.81;4967168;28;20202;-79
2021/08/05 08:25:18;;;;;;;6.20;5.00;;;;;;;19.08;100.00;100403.34;4921623;29;20196;-78
2021/08/05 08:27:45;;;;;;;8.27;6.35;;;;;;;18.97;100.00;100406.81;4956221;29;20235;-79
2021/08/05 08:30:13;;;;;;;7.53;6.57;;;;;;;19.00;100.00;100403.41;4939761;28;20211;-78
2021/08/05 08:32:39;;;;;;;8.15;6.88;;;;;;;19.02;100.00;100407.41;4939851;29;20327;-78
2021/08/05 08:35:08;;;;;;;8.38;7.13;;;;;;;19.00;100.00;100401.44;4940898;29;20176;-78
2021/08/05 08:37:36;;;;;;;8.70;6.80;;;;;;;19.16;100.00;100405.25;4953627;29;20285;-80
2021/08/05 08:40:03;;;;;;;8.50;7.43;;;;;;;19.23;100.00;100397.25;4961597;28;20270;-80
2021/08/05 08:42:29;;;;;;;8.55;7.75;;;;;;;19.41;100.00;100401.47;4960935;28;20223;-79
2021/08/05 08:44:57;;;;;;;7.75;6.95;;;;;;;19.58;100.00;100401.31;4960323;29;20183;-78
2021/08/05 08:47:23;;;;;;;7.88;7.07;;;;;;;19.49;100.00;100398.66;4961823;28;20223;-79
2021/08/05 08:49:49;;;;;;;8.60;7.80;;;;;;;19.76;100.00;100393.41;4939664;29;20214;-79
2021/08/05 08:52:15;;;;;;;7.40;6.70;;;;;;;19.93;100.00;100382.22;4949428;28;20271;-78
2021/08/05 08:54:44;;;;;;;7.03;6.43;;;;;;;20.23;100.00;100397.47;4939491;29;20192;-78
2021/08/05 08:57:13;;;;;;;6.30;5.70;;;;;;;20.42;100.00;100389.44;4940103;28;20215;-78
2021/08/05 08:59:41;;;;;;;6.30;5.70;;;;;;;20.54;100.00;100382.78;4939149;29;20240;-78
2021/08/05 09:02:09;;;;;;;5.13;4.60;;;;;;;20.56;100.00;100396.25;4935932;28;20239;-77
2021/08/05 09:04:39;;;;;;;5.75;4.88;;;;;;;20.90;100.00;100385.59;4955996;28;20218;-79
2021/08/05 09:07:07;;;;;;;5.15;4.63;;;;;;;20.79;100.00;100383.63;4943585;28;20219;-78
2021/08/05 09:09:33;;;;;;;5.40;4.90;;;;;;;21.08;100.00;100389.69;4959924;28;20206;-78
2021/08/05 09:12:01;;;;;;;5.10;4.40;;;;;;;21.31;100.00;100380.56;4927860;28;20669;-77
2021/08/05 09:14:48;;;;;;;5.20;4.70;;;;;;;21.42;100.00;100387.25;4959292;28;20229;-79
2021/08/05 09:17:23;;;;;;;5.18;4.55;;;;;;;21.28;100.00;100387.59;4942930;29;20270;-78
2021/08/05 09:19:50;;;;;;;5.85;4.57;;;;;;;21.54;100.00;100388.03;4960138;29;20293;-78
2021/08/05 09:22:36;;;;;;;5.45;4.90;;;;;;;21.66;100.00;100382.44;4959522;29;20610;-78
2021/08/05 09:25:29;;;;;;;4.90;4.50;;;;;;;21.80;100.00;100382.84;4960054;29;20245;-79
2021/08/05 09:28:15;;;;;;;4.68;4.25;;;;;;;21.95;100.00;100376.56;4973810;28;20298;-77
2021/08/05 09:30:41;;;;;;;5.18;4.68;;;;;;;22.08;100.00;100376.94;4974503;28;20234;-79
2021/08/05 09:33:09;;;;;;;4.47;4.07;;;;;;;22.24;100.00;100372.25;4959617;29;20194;-78
2021/08/05 09:35:35;;;;;;;4.60;4.20;;;;;;;22.46;100.00;100364.13;4943498;28;20252;-79
2021/08/05 09:38:33;;;;;;;4.45;4.05;;;;;;;22.61;100.00;100354.22;4933337;29;20190;-78
2021/08/05 09:41:06;;;;;;;4.70;4.30;;;;;;;22.35;100.00;100362.25;4947577;29;20226;-77
2021/08/05 09:43:32;;;;;;;4.68;4.28;;;;;;;22.30;100.00;100368.06;4957340;28;20195;-78
2021/08/05 09:45:58;;;;;;;6.18;4.30;;;;;;;22.19;100.00;100364.22;4956342;29;20230;-78
2021/08/05 09:48:44;;;;;;;4.55;4.15;;;;;;;22.48;100.00;100352.72;4934260;28;20203;-78
2021/08/05 09:51:19;;;;;;;5.13;4.63;;;;;;;22.82;100.00;100356.34;4959713;28;20237;-78
2021/08/05 09:53:58;;;;;;;4.90;4.50;;;;;;;23.04;100.00;100352.94;4965002;28;20183;-78
2021/08/05 09:56:29;;;;;;;4.25;3.95;;;;;;;22.56;100.00;100343.41;4957226;28;20227;-79
2021/08/05 09:59:08;;;;;;;4.65;4.00;;;;;;;22.38;100.00;100350.50;4966464;28;20295;-78
2021/08/05 10:01:34;;;;;;;4.07;3.67;;;;;;;22.50;100.00;100345.63;4945390;28;20237;-78
2021/08/05 10:04:22;;;;;;;3.65;3.35;;;;;;;22.49;100.00;100340.44;4943686;28;20179;-77
2021/08/05 10:07:07;;;;;;;4.10;3.67;;;;;;;22.99;100.00;100344.09;4977834;28;20239;-78
2021/08/05 10:09:35;;;;;;;5.65;4.00;;;;;;;23.13;100.00;100339.69;4979057;28;20219;-79
2021/08/05 10:12:30;;;;;;;3.75;3.45;;;;;;;23.33;100.00;100332.97;4946195;28;20256;-79
2021/08/05 10:15:12;;;;;;;3.72;3.38;;;;;;;23.50;100.00;100329.75;4962910;29;20546;-79
2021/08/05 10:17:41;;;;;;;8.80;7.85;;;;;;;23.31;100.00;100329.75;4963084;28;20218;-79
2021/08/05 10:20:10;;;;;;;4.88;4.47;;;;;;;23.69;100.00;100322.28;4944619;28;20213;-78
2021/08/05 10:22:44;;;;;;;3.47;3.17;;;;;;;23.86;99.89;100324.59;4947331;28;20641;-80
2021/08/05 10:25:11;;;;;;;3.63;3.33;;;;;;;24.26;98.52;100323.75;4939457;28;20190;-78
2021/08/05 10:27:40;;;;;;;3.70;3.40;;;;;;;24.00;98.20;100317.31;4924353;29;20218;-79
2021/08/05 10:30:10;;;;;;;3.70;3.10;;;;;;;24.30;94.48;100321.06;4956278;28;20578;-79
2021/08/05 10:32:36;;;;;;;3.80;3.47;;;;;;;24.27;97.53;100316.28;4957711;28;20176;-78
2021/08/05 10:35:07;;;;;;;3.55;3.20;;;;;;;24.02;98.18;100317.75;4943173;29;20274;-80
2021/08/05 10:37:33;;;;;;;4.55;3.00;;;;;;;24.36;96.94;100307.31;4941840;29;20218;-78
2021/08/05 10:40:00;;;;;;;4.35;3.33;;;;;;;24.12;95.01;100306.03;4937472;29;20586;-78
2021/08/05 10:42:26;;;;;;;4.38;3.28;;;;;;;23.92;94.74;100307.28;4922727;29;20255;-80
2021/08/05 10:44:52;;;;;;;3.08;2.80;;;;;;;24.03;97.69;100303.50;4948880;28;20202;-78
2021/08/05 10:47:21;;;;;;;3.78;3.42;;;;;;;24.11;99.77;100304.44;4973075;28;20231;-80
2021/08/05 10:49:50;;;;;;;3.17;2.97;;;;;;;24.05;94.28;100306.72;4967955;28;20238;-79
2021/08/05 10:52:34;;;;;;;4.15;3.22;;;;;;;24.26;97.57;100286.84;4941990;28;20237;-79
2021/08/05 10:55:03;;;;;;;3.47;3.28;;;;;;;24.36;94.92;100290.63;4959399;28;20186;-80
2021/08/05 10:57:31;;;;;;;3.20;3.00;;;;;;;24.45;89.93;100285.63;4958385;28;20226;-80
2021/08/05 11:00:16;;;;;;;3.10;2.90;;;;;;;24.63;90.26;100285.91;4940858;29;20696;-78
2021/08/05 11:02:46;;;;;;;3.50;3.20;;;;;;;24.46;87.16;100281.66;4957655;28;20222;-78
2021/08/05 11:05:37;;;;;;;3.67;2.80;;;;;;;24.90;87.39;100269.63;4949626;29;20179;-79
2021/08/05 11:08:08;;;;;;;4.15;3.17;;;;;;;24.64;91.41;100273.63;4964738;28;20256;-78
2021/08/05 11:10:39;;;;;;;2.90;2.70;;;;;;;24.86;88.79;100271.56;4955883;28;20278;-79
2021/08/05 11:13:07;;;;;;;3.70;3.38;;;;;;;24.59;90.53;100271.94;4926851;29;20680;-79
2021/08/05 11:15:33;;;;;;;3.88;3.05;;;;;;;24.70;90.39;100261.78;4956895;28;20234;-78
2021/08/05 11:18:14;;;;;;;3.78;3.00;;;;;;;24.77;89.91;100259.13;4958410;28;20183;-77
2021/08/05 11:20:43;;;;;;;3.00;2.80;;;;;;;24.59;86.60;100262.81;4950318;29;20227;-78
2021/08/05 11:23:34;;;;;;;3.35;3.10;;;;;;;24.40;84.79;100263.72;4938782;29;20184;-79
2021/08/05 11:26:04;;;;;;;3.30;3.00;;;;;;;24.70;88.51;100261.78;4952666;28;20219;-80